Time;durP1;ratioP1;P1;durP2;ratioP2;P2;SDS_P1;SDS_P2;PMS_P1;PMS_P2;Temp;Humidity;BMP_temperature;BMP_pressure;BME280_temperature;BME280_humidity;BME280_pressure;Samples;Min_cycle;Max_cycle;Signal;HPM_P1;HPM_P2
2022/04/05 00:00:12;;;;;;;4.88;1.58;;;19.60;51.60;;;;;;4541051;31;20205;-73
2022/04/05 00:02:37;;;;;;;6.28;1.73;;;19.60;51.60;;;;;;4526589;31;20255;-72
2022/04/05 00:05:03;;;;;;;4.40;1.45;;;19.60;51.60;;;;;;4513311;31;20084;-72
2022/04/05 00:07:29;;;;;;;6.30;1.70;;;19.60;51.60;;;;;;4526080;31;20068;-72
2022/04/05 00:09:55;;;;;;;6.07;1.70;;;19.50;51.50;;;;;;4526461;31;20122;-72
2022/04/05 00:12:21;;;;;;;7.43;1.48;;;19.50;51.50;;;;;;4540608;31;20497;-72
2022/04/05 00:14:48;;;;;;;4.70;1.50;;;19.50;51.50;;;;;;4540730;31;20478;-72
2022/04/05 00:17:14;;;;;;;4.10;1.20;;;19.50;51.50;;;;;;4540508;31;20094;-72
2022/04/05 00:19:40;;;;;;;3.47;1.48;;;19.50;51.50;;;;;;4540515;31;20080;-72
2022/04/05 00:22:05;;;;;;;5.22;1.40;;;19.50;51.50;;;;;;4526252;31;20386;-72
2022/04/05 00:24:31;;;;;;;4.65;1.48;;;19.50;51.50;;;;;;4540517;31;20102;-72
2022/04/05 00:26:59;;;;;;;3.95;1.30;;;19.50;51.50;;;;;;4540420;31;20088;-72
2022/04/05 00:29:24;;;;;;;4.35;1.40;;;19.50;51.50;;;;;;4526052;31;20218;-72
2022/04/05 00:31:51;;;;;;;6.57;1.40;;;19.50;51.50;;;;;;4526068;31;20144;-72
2022/04/05 00:34:18;;;;;;;6.93;1.33;;;19.40;51.50;;;;;;4540686;31;20303;-72
2022/04/05 00:36:44;;;;;;;3.95;1.38;;;19.40;51.50;;;;;;4540166;31;20099;-72
2022/04/05 00:39:11;;;;;;;4.55;1.30;;;19.40;51.50;;;;;;4540014;31;20134;-72
2022/04/05 00:41:37;;;;;;;3.47;1.02;;;19.40;51.50;;;;;;4540273;31;20227;-72
2022/04/05 00:44:03;;;;;;;4.82;1.15;;;19.40;51.50;;;;;;4539941;31;20092;-72
2022/04/05 00:46:29;;;;;;;5.85;1.55;;;19.40;51.50;;;;;;4540228;31;20192;-72
2022/04/05 00:48:57;;;;;;;5.43;1.30;;;19.40;51.50;;;;;;4540495;31;20631;-72
2022/04/05 00:51:24;;;;;;;4.00;1.25;;;19.40;51.50;;;;;;4540212;31;20140;-72
2022/04/05 00:54:06;;;;;;;5.57;1.33;;;19.40;51.50;;;;;;4539923;31;20068;-72
2022/04/05 00:56:36;;;;;;;4.35;1.35;;;19.40;51.40;;;;;;4539842;31;20118;-72
2022/04/05 00:59:03;;;;;;;5.07;1.63;;;19.40;51.40;;;;;;4540362;31;20064;-72
2022/04/05 01:01:30;;;;;;;6.72;1.50;;;19.30;51.40;;;;;;4540072;31;20087;-72
2022/04/05 01:03:56;;;;;;;2.53;1.20;;;19.30;51.40;;;;;;4540229;31;20133;-72
2022/04/05 01:06:28;;;;;;;5.45;1.20;;;19.30;51.40;;;;;;4525219;31;20586;-72
2022/04/05 01:08:55;;;;;;;5.45;1.30;;;19.30;51.40;;;;;;4539683;31;20076;-72
2022/04/05 01:11:21;;;;;;;3.60;1.23;;;19.30;51.40;;;;;;4539752;31;20086;-72
2022/04/05 01:13:47;;;;;;;9.13;1.58;;;19.30;51.40;;;;;;4540211;31;20425;-72
2022/04/05 01:16:13;;;;;;;4.07;1.00;;;19.30;51.40;;;;;;4540166;31;20091;-72
2022/04/05 01:18:39;;;;;;;4.88;1.65;;;19.30;51.40;;;;;;4539815;31;20226;-72
2022/04/05 01:21:05;;;;;;;3.60;1.05;;;19.30;51.40;;;;;;4539872;31;20079;-72
2022/04/05 01:23:31;;;;;;;7.40;1.38;;;19.30;51.30;;;;;;4539787;31;20099;-72
2022/04/05 01:25:58;;;;;;;5.35;1.42;;;19.30;51.40;;;;;;4539356;31;20083;-72
2022/04/05 01:28:24;;;;;;;3.88;1.20;;;19.30;51.30;;;;;;4525147;31;20098;-72
2022/04/05 01:30:51;;;;;;;4.45;1.15;;;19.20;51.30;;;;;;4525462;31;20072;-72
2022/04/05 01:33:17;;;;;;;3.70;0.93;;;19.20;51.30;;;;;;4539492;31;20095;-72
2022/04/05 01:35:43;;;;;;;6.75;1.40;;;19.20;51.30;;;;;;4539670;31;20119;-72
2022/04/05 01:38:10;;;;;;;3.88;0.98;;;19.20;51.30;;;;;;4525224;31;20417;-72
2022/04/05 01:40:36;;;;;;;3.40;1.15;;;19.20;51.30;;;;;;4525314;31;20556;-70
2022/04/05 01:43:03;;;;;;;3.95;1.20;;;19.20;51.30;;;;;;4534090;31;20126;-73
2022/04/05 01:45:29;;;;;;;6.90;1.20;;;19.20;51.30;;;;;;4521940;31;20080;-72
2022/04/05 01:47:54;;;;;;;3.85;1.30;;;19.20;51.30;;;;;;4523751;31;20147;-72
2022/04/05 01:50:21;;;;;;;3.03;0.95;;;19.20;51.30;;;;;;4527101;31;20210;-72
2022/04/05 01:52:47;;;;;;;4.10;1.45;;;19.20;51.30;;;;;;4526731;31;20076;-72
2022/04/05 01:55:13;;;;;;;6.05;1.40;;;19.20;51.30;;;;;;4526551;31;20087;-72
2022/04/05 01:57:39;;;;;;;2.72;1.10;;;19.20;51.30;;;;;;4526815;31;20208;-72
2022/04/05 02:00:07;;;;;;;3.83;1.02;;;19.20;51.30;;;;;;4526627;31;20084;-72
2022/04/05 02:02:33;;;;;;;3.97;1.23;;;19.20;51.30;;;;;;4526581;31;20186;-72
2022/04/05 02:04:58;;;;;;;4.78;1.33;;;19.10;51.20;;;;;;4511967;31;20084;-72
2022/04/05 02:07:25;;;;;;;4.05;1.40;;;19.10;51.20;;;;;;4512183;31;20098;-72
2022/04/05 02:09:50;;;;;;;4.30;1.30;;;19.10;51.20;;;;;;4526458;31;20233;-72
2022/04/05 02:12:17;;;;;;;5.32;1.30;;;19.10;51.20;;;;;;4512160;31;20096;-72
2022/04/05 02:14:44;;;;;;;5.70;1.20;;;19.10;51.20;;;;;;4526328;31;20206;-72
2022/04/05 02:17:11;;;;;;;3.53;1.00;;;19.10;51.20;;;;;;4526453;31;20088;-72
2022/04/05 02:19:38;;;;;;;4.35;1.33;;;19.10;51.20;;;;;;4512170;31;20226;-72
2022/04/05 02:22:04;;;;;;;4.38;1.05;;;19.10;51.20;;;;;;4526547;31;20087;-72
2022/04/05 02:24:30;;;;;;;3.13;0.80;;;19.00;51.20;;;;;;4526188;31;20135;-72
2022/04/05 02:26:56;;;;;;;2.20;0.90;;;19.10;51.20;;;;;;4526005;31;20126;-72
2022/04/05 02:29:23;;;;;;;2.88;0.90;;;19.10;51.30;;;;;;4526391;31;20092;-72
2022/04/05 02:31:49;;;;;;;2.55;0.82;;;19.00;51.20;;;;;;4525845;31;20071;-72
2022/04/05 02:34:15;;;;;;;4.53;1.20;;;19.10;51.20;;;;;;4526356;31;20060;-72
2022/04/05 02:36:41;;;;;;;5.40;1.55;;;19.00;51.10;;;;;;4525759;31;20098;-72
2022/04/05 02:39:07;;;;;;;4.47;0.93;;;19.00;51.10;;;;;;4525847;31;20173;-72
2022/04/05 02:41:33;;;;;;;4.03;1.17;;;19.00;51.10;;;;;;4526303;31;20076;-72
2022/04/05 02:43:59;;;;;;;2.75;1.00;;;19.00;51.10;;;;;;4525197;31;20415;-71
2022/04/05 02:46:26;;;;;;;2.80;0.82;;;19.00;51.10;;;;;;4525255;31;20390;-72
2022/04/05 02:48:54;;;;;;;3.50;1.10;;;19.00;51.10;;;;;;4525289;31;20528;-72
2022/04/05 02:51:22;;;;;;;3.25;1.08;;;19.00;51.10;;;;;;4525826;31;20060;-72
2022/04/05 02:53:48;;;;;;;3.28;0.80;;;19.00;51.10;;;;;;4525579;31;20137;-72
2022/04/05 02:56:14;;;;;;;3.53;1.25;;;19.00;51.10;;;;;;4525266;31;20077;-72
2022/04/05 02:58:40;;;;;;;2.55;1.05;;;18.90;51.00;;;;;;4525229;31;20413;-72
2022/04/05 03:01:06;;;;;;;2.53;0.90;;;19.00;51.10;;;;;;4525703;31;20091;-72
2022/04/05 03:03:33;;;;;;;3.95;1.17;;;18.90;51.00;;;;;;4525681;31;20108;-72
2022/04/05 03:05:59;;;;;;;2.47;0.98;;;18.90;51.00;;;;;;4524859;31;20076;-72
2022/04/05 03:08:25;;;;;;;3.13;0.95;;;18.90;51.10;;;;;;4524811;31;20076;-72
2022/04/05 03:10:52;;;;;;;4.97;1.30;;;18.90;51.00;;;;;;4524904;31;20209;-71
2022/04/05 03:13:19;;;;;;;4.10;0.95;;;18.90;51.00;;;;;;4524461;31;20121;-72
2022/04/05 03:15:45;;;;;;;3.70;1.17;;;18.90;51.00;;;;;;4524054;31;20087;-72
2022/04/05 03:18:11;;;;;;;3.13;0.80;;;18.90;51.00;;;;;;4524057;31;20061;-72
2022/04/05 03:20:37;;;;;;;3.53;1.10;;;18.90;51.00;;;;;;4524044;31;20084;-72
2022/04/05 03:23:04;;;;;;;2.83;0.90;;;18.90;51.00;;;;;;4523837;31;20112;-72
2022/04/05 03:25:30;;;;;;;3.17;0.77;;;18.90;51.00;;;;;;4523712;31;20099;-72
2022/04/05 03:28:00;;;;;;;4.07;1.05;;;18.90;51.00;;;;;;4523851;31;20417;-72
2022/04/05 03:30:27;;;;;;;3.47;1.10;;;18.90;51.00;;;;;;4523827;31;20136;-72
2022/04/05 03:32:53;;;;;;;4.40;1.10;;;18.90;51.00;;;;;;4523813;31;20212;-72
2022/04/05 03:35:19;;;;;;;3.88;0.95;;;18.90;51.00;;;;;;4523731;31;20567;-72
2022/04/05 03:37:45;;;;;;;2.20;0.88;;;18.80;50.90;;;;;;4509202;31;20095;-72
2022/04/05 03:40:12;;;;;;;3.35;0.85;;;18.80;50.90;;;;;;4509083;31;20084;-72
2022/04/05 03:42:38;;;;;;;1.90;0.70;;;18.80;51.00;;;;;;4509133;31;20147;-72
2022/04/05 03:45:04;;;;;;;3.78;0.90;;;18.80;50.90;;;;;;4506214;31;20560;-72
2022/04/05 03:47:31;;;;;;;3.72;1.17;;;18.80;51.00;;;;;;4509797;31;20085;-72
2022/04/05 03:49:57;;;;;;;3.53;0.82;;;18.80;50.90;;;;;;4507599;31;20294;-72
2022/04/05 03:52:23;;;;;;;3.67;0.98;;;18.80;50.90;;;;;;4507650;31;20113;-72
2022/04/05 03:54:49;;;;;;;1.42;0.60;;;18.80;51.00;;;;;;4507898;31;20383;-72
2022/04/05 03:57:14;;;;;;;3.58;0.75;;;18.80;50.90;;;;;;4508727;31;20138;-72
2022/04/05 03:59:40;;;;;;;1.88;0.68;;;18.80;50.90;;;;;;4508603;31;20061;-72
2022/04/05 04:02:06;;;;;;;2.85;0.82;;;18.80;50.90;;;;;;4507548;31;20137;-72
2022/04/05 04:04:32;;;;;;;2.10;0.80;;;18.80;50.90;;;;;;4507277;31;20109;-72
2022/04/05 04:06:57;;;;;;;2.20;0.82;;;18.80;50.90;;;;;;4507290;31;20049;-72
2022/04/05 04:09:23;;;;;;;2.58;0.80;;;18.80;50.90;;;;;;4507359;31;20544;-71
2022/04/05 04:11:49;;;;;;;2.30;0.60;;;18.70;50.90;;;;;;4506448;31;20398;-72
2022/04/05 04:14:16;;;;;;;3.55;1.00;;;18.80;50.90;;;;;;4508267;31;20069;-72
2022/04/05 04:16:42;;;;;;;4.53;1.00;;;18.80;50.90;;;;;;4508426;31;20526;-72
2022/04/05 04:19:08;;;;;;;2.47;1.02;;;18.80;50.90;;;;;;4508616;31;20083;-72
2022/04/05 04:21:34;;;;;;;4.25;0.82;;;18.70;50.80;;;;;;4508265;31;20084;-71
2022/04/05 04:24:00;;;;;;;3.17;0.73;;;18.70;50.80;;;;;;4507907;31;20083;-71
2022/04/05 04:26:26;;;;;;;2.13;0.73;;;18.70;51.70;;;;;;4507360;31;20068;-72
2022/04/05 04:29:02;;;;;;;2.50;0.93;;;18.70;50.80;;;;;;4507647;31;20095;-72
2022/04/05 04:31:28;;;;;;;2.58;0.70;;;18.70;50.80;;;;;;4507696;31;20643;-72
2022/04/05 04:33:54;;;;;;;2.22;0.60;;;18.70;50.80;;;;;;4507607;31;20219;-71
2022/04/05 04:36:21;;;;;;;3.05;0.80;;;18.70;50.80;;;;;;4506467;31;20116;-71
2022/04/05 04:38:48;;;;;;;2.90;0.82;;;18.70;50.80;;;;;;4507517;31;20418;-71
2022/04/05 04:41:14;;;;;;;2.28;0.70;;;18.70;50.80;;;;;;4509653;31;20479;-71
2022/04/05 04:43:40;;;;;;;2.75;0.90;;;18.70;50.80;;;;;;4507630;31;20072;-71
2022/04/05 04:46:06;;;;;;;2.78;0.80;;;18.70;50.70;;;;;;4521458;31;20073;-72
2022/04/05 04:48:32;;;;;;;2.72;0.63;;;18.70;50.80;;;;;;4524330;31;20485;-72
2022/04/05 04:50:58;;;;;;;2.17;0.77;;;18.70;50.80;;;;;;4523829;31;20088;-72
2022/04/05 04:53:24;;;;;;;3.22;0.60;;;18.70;50.80;;;;;;4524087;31;20068;-71
2022/04/05 04:55:50;;;;;;;4.55;0.82;;;18.60;50.70;;;;;;4523784;31;20202;-72
2022/04/05 04:58:15;;;;;;;4.45;1.05;;;18.60;50.70;;;;;;4523779;31;20074;-72
2022/04/05 05:00:42;;;;;;;2.47;0.73;;;18.60;50.60;;;;;;4523378;31;20125;-73
2022/04/05 05:03:07;;;;;;;2.50;0.80;;;18.60;50.70;;;;;;4524039;31;20092;-72
2022/04/05 05:05:33;;;;;;;2.65;0.90;;;18.60;50.70;;;;;;4523792;31;20119;-71
2022/04/05 05:07:59;;;;;;;2.35;0.80;;;18.60;50.70;;;;;;4524095;31;20057;-71
2022/04/05 05:10:25;;;;;;;3.00;0.70;;;18.60;50.70;;;;;;4509461;31;20079;-72
2022/04/05 05:12:51;;;;;;;2.17;0.65;;;18.60;50.70;;;;;;4509756;31;20208;-72
2022/04/05 05:15:19;;;;;;;3.47;0.80;;;18.60;50.70;;;;;;4523443;31;20072;-71
2022/04/05 05:17:46;;;;;;;2.25;0.80;;;18.60;50.70;;;;;;4522834;31;20165;-70
2022/04/05 05:20:13;;;;;;;2.60;0.77;;;18.60;50.70;;;;;;4520561;31;20072;-70
2022/04/05 05:22:40;;;;;;;4.63;1.10;;;18.50;50.60;;;;;;4538863;31;20075;-70
2022/04/05 05:25:07;;;;;;;4.78;1.15;;;18.60;50.60;;;;;;4538556;31;20152;-70
2022/04/05 05:27:33;;;;;;;7.13;1.35;;;18.50;50.20;;;;;;4538998;31;20157;-70
2022/04/05 05:30:00;;;;;;;5.47;0.88;;;18.50;50.20;;;;;;4524562;31;20193;-70
2022/04/05 05:32:27;;;;;;;7.03;1.17;;;18.50;50.70;;;;;;4538894;31;20079;-70
2022/04/05 05:34:52;;;;;;;4.57;1.08;;;18.50;51.00;;;;;;4538965;31;20088;-70
2022/04/05 05:37:18;;;;;;;4.03;0.90;;;18.50;51.50;;;;;;4524412;31;20048;-70
2022/04/05 05:39:44;;;;;;;6.13;0.80;;;18.50;52.80;;;;;;4538834;31;20285;-71
2022/04/05 05:42:10;;;;;;;4.03;0.95;;;18.50;51.90;;;;;;4539259;31;20168;-70
2022/04/05 05:44:36;;;;;;;3.15;0.88;;;18.50;51.80;;;;;;4539084;31;20513;-70
2022/04/05 05:47:04;;;;;;;3.47;0.90;;;18.50;51.90;;;;;;4525428;31;20084;-70
2022/04/05 05:49:30;;;;;;;2.70;0.73;;;18.50;51.80;;;;;;4525101;31;20072;-71
2022/04/05 05:51:56;;;;;;;3.13;0.80;;;18.60;51.80;;;;;;4539785;31;20079;-71
2022/04/05 05:54:22;;;;;;;5.65;1.02;;;18.60;51.60;;;;;;4539479;31;20224;-71
2022/04/05 05:56:48;;;;;;;4.78;0.95;;;18.70;51.60;;;;;;4539128;31;20075;-71
2022/04/05 05:59:14;;;;;;;3.50;0.68;;;18.70;51.30;;;;;;4539225;31;20551;-71
2022/04/05 06:01:40;;;;;;;5.47;1.02;;;18.90;51.30;;;;;;4524914;31;20064;-71
2022/04/05 06:04:05;;;;;;;4.85;0.98;;;19.00;51.10;;;;;;4524652;31;20088;-72
2022/04/05 06:06:31;;;;;;;4.20;1.02;;;19.00;51.00;;;;;;4539709;31;20099;-71
2022/04/05 06:08:58;;;;;;;2.40;0.70;;;19.20;50.90;;;;;;4539368;31;20445;-70
2022/04/05 06:11:24;;;;;;;3.70;0.70;;;19.20;50.80;;;;;;4524794;31;20532;-70
2022/04/05 06:13:51;;;;;;;7.55;0.90;;;19.30;50.60;;;;;;4539517;31;20076;-70
2022/04/05 06:16:18;;;;;;;2.13;0.70;;;19.40;50.60;;;;;;4539407;31;20513;-70
2022/04/05 06:18:47;;;;;;;2.55;0.90;;;19.50;50.50;;;;;;4539084;31;20088;-72
2022/04/05 06:21:16;;;;;;;3.97;0.80;;;19.70;50.50;;;;;;4539287;31;20099;-70
2022/04/05 06:23:42;;;;;;;3.85;0.80;;;19.80;50.30;;;;;;4539262;31;20076;-71
2022/04/05 06:26:08;;;;;;;3.95;0.65;;;19.90;50.20;;;;;;4524457;31;20084;-70
2022/04/05 06:28:34;;;;;;;2.63;0.70;;;20.00;50.00;;;;;;4539261;31;20162;-71
2022/04/05 06:31:00;;;;;;;1.92;0.70;;;20.10;49.70;;;;;;4524944;31;20167;-71
2022/04/05 06:33:27;;;;;;;3.47;0.60;;;20.20;49.60;;;;;;4538916;31;20106;-69
2022/04/05 06:35:58;;;;;;;10.85;1.02;;;20.20;49.60;;;;;;4527497;31;20068;-69
2022/04/05 06:38:25;;;;;;;6.00;0.77;;;20.30;49.50;;;;;;4542019;31;20131;-71
2022/04/05 06:40:54;;;;;;;5.93;0.70;;;20.40;49.40;;;;;;4541959;31;20072;-70
2022/04/05 06:43:23;;;;;;;13.05;0.98;;;20.40;49.40;;;;;;4541706;31;20087;-71
2022/04/05 06:45:49;;;;;;;5.15;0.80;;;20.50;49.40;;;;;;4541962;31;20194;-71
2022/04/05 06:48:15;;;;;;;2.88;0.77;;;20.50;49.40;;;;;;4542021;31;20111;-70
2022/04/05 06:50:40;;;;;;;3.88;0.80;;;20.50;49.30;;;;;;4527725;31;20076;-71
2022/04/05 06:53:08;;;;;;;5.43;1.08;;;20.60;49.40;;;;;;4537265;31;20509;-71
2022/04/05 06:55:35;;;;;;;2.47;0.70;;;20.60;49.40;;;;;;4525691;31;20514;-69
2022/04/05 06:58:01;;;;;;;7.22;1.02;;;20.50;49.50;;;;;;4511562;31;20080;-69
2022/04/05 07:00:30;;;;;;;3.20;0.75;;;20.50;49.60;;;;;;4525827;31;20125;-69
2022/04/05 07:02:57;;;;;;;5.15;1.10;;;20.50;49.70;;;;;;4525542;31;20072;-69
2022/04/05 07:05:24;;;;;;;5.72;1.60;;;20.40;49.90;;;;;;4525706;31;20413;-70
2022/04/05 07:07:50;;;;;;;8.77;1.30;;;20.40;49.90;;;;;;4525866;31;20493;-69
2022/04/05 07:10:18;;;;;;;15.57;1.55;;;20.30;50.00;;;;;;4525799;31;20717;-67
2022/04/05 07:12:45;;;;;;;6.55;1.30;;;20.20;50.20;;;;;;4525402;31;20134;-66
2022/04/05 07:15:11;;;;;;;4.25;1.40;;;20.20;50.40;;;;;;4525735;31;20131;-71
2022/04/05 07:17:38;;;;;;;6.70;0.80;;;20.20;50.60;;;;;;4525692;31;20076;-71
2022/04/05 07:20:08;;;;;;;5.30;1.10;;;20.20;50.70;;;;;;4540741;31;20123;-71
2022/04/05 07:22:35;;;;;;;4.93;1.23;;;20.20;50.70;;;;;;4527821;31;20131;-70
2022/04/05 07:25:02;;;;;;;6.53;1.30;;;20.20;50.70;;;;;;4541606;31;20198;-71
2022/04/05 07:27:29;;;;;;;7.55;1.33;;;20.20;50.80;;;;;;4540964;31;20512;-70
2022/04/05 07:29:54;;;;;;;8.77;1.20;;;20.30;50.80;;;;;;4540795;31;20183;-71
2022/04/05 07:32:21;;;;;;;9.38;1.42;;;20.30;50.80;;;;;;4526872;31;20102;-71
2022/04/05 07:34:47;;;;;;;9.25;1.65;;;20.30;50.80;;;;;;4541273;31;20405;-71
2022/04/05 07:37:13;;;;;;;8.48;2.47;;;20.40;50.80;;;;;;4541485;31;20098;-72
2022/04/05 07:39:40;;;;;;;12.55;2.83;;;20.40;50.80;;;;;;4526717;31;20083;-70
2022/04/05 07:42:08;;;;;;;9.52;2.60;;;20.50;50.80;;;;;;4531116;31;20153;-71
2022/04/05 07:44:34;;;;;;;7.95;3.03;;;20.50;50.90;;;;;;4524646;31;20115;-72
2022/04/05 07:46:59;;;;;;;15.45;5.05;;;20.50;50.90;;;;;;4524807;31;20119;-76
2022/04/05 07:49:26;;;;;;;13.85;3.33;;;20.50;51.20;;;;;;4525014;31;20471;-76
2022/04/05 07:51:53;;;;;;;13.68;3.38;;;20.50;51.10;;;;;;4524943;31;20475;-76
2022/04/05 07:54:18;;;;;;;14.25;2.88;;;20.50;51.10;;;;;;4510629;31;20504;-75
2022/04/05 07:56:45;;;;;;;9.65;2.55;;;20.40;50.80;;;;;;4510274;31;20084;-76
2022/04/05 07:59:11;;;;;;;10.02;3.00;;;20.40;50.70;;;;;;4525065;31;20080;-76
2022/04/05 08:01:37;;;;;;;17.35;3.00;;;20.30;50.60;;;;;;4525076;31;20414;-74
2022/04/05 08:04:03;;;;;;;10.50;2.85;;;20.20;50.20;;;;;;4510414;31;20561;-71
2022/04/05 08:06:31;;;;;;;8.07;2.13;;;20.20;50.00;;;;;;4524456;31;20096;-71
2022/04/05 08:08:57;;;;;;;12.90;1.95;;;20.10;49.80;;;;;;4524739;31;20092;-71
2022/04/05 08:11:23;;;;;;;10.38;2.20;;;20.10;50.80;;;;;;4524469;31;20060;-70
2022/04/05 08:13:49;;;;;;;13.60;2.45;;;20.00;49.80;;;;;;4524646;31;20091;-71
2022/04/05 08:16:15;;;;;;;11.23;2.13;;;20.00;49.90;;;;;;4523995;31;20073;-70
2022/04/05 08:18:40;;;;;;;7.68;1.92;;;19.90;49.80;;;;;;4524648;31;20079;-69
2022/04/05 08:21:06;;;;;;;10.98;1.73;;;19.90;49.90;;;;;;4510441;31;20065;-69
2022/04/05 08:23:32;;;;;;;10.27;1.92;;;19.80;49.90;;;;;;4527842;31;20164;-70
2022/04/05 08:25:59;;;;;;;10.32;1.90;;;19.80;49.90;;;;;;4527450;31;20178;-70
2022/04/05 08:28:26;;;;;;;8.07;1.58;;;19.80;49.90;;;;;;4525477;31;20102;-72
2022/04/05 08:30:51;;;;;;;9.70;1.95;;;19.70;49.80;;;;;;4524907;31;20064;-72
2022/04/05 08:33:17;;;;;;;10.38;2.30;;;19.70;49.80;;;;;;4509994;31;20529;-73
2022/04/05 08:35:44;;;;;;;12.70;2.80;;;19.70;49.50;;;;;;4509867;31;20124;-73
2022/04/05 08:38:10;;;;;;;13.90;2.53;;;19.70;48.90;;;;;;4524131;31;20071;-70
2022/04/05 08:40:36;;;;;;;13.02;3.15;;;19.80;48.60;;;;;;4524301;31;20521;-70
2022/04/05 08:43:02;;;;;;;11.23;2.75;;;19.70;48.40;;;;;;4524389;31;20069;-70
2022/04/05 08:45:29;;;;;;;10.68;2.55;;;19.80;48.50;;;;;;4524141;31;20386;-70
2022/04/05 08:47:58;;;;;;;10.57;2.78;;;19.70;48.50;;;;;;4524437;31;20498;-70
2022/04/05 08:50:31;;;;;;;12.63;2.50;;;19.70;48.70;;;;;;4524110;31;20701;-71
2022/04/05 08:52:59;;;;;;;11.55;2.67;;;19.60;48.70;;;;;;4524837;31;20504;-71
2022/04/05 08:55:28;;;;;;;10.95;2.60;;;19.60;48.80;;;;;;4523702;31;20156;-70
2022/04/05 08:57:57;;;;;;;12.30;2.65;;;19.50;48.90;;;;;;4523635;31;20088;-70
2022/04/05 09:00:23;;;;;;;11.85;2.63;;;19.50;49.00;;;;;;4523954;31;20078;-75
2022/04/05 09:03:00;;;;;;;10.98;3.13;;;19.40;49.10;;;;;;4523332;31;20219;-67
2022/04/05 09:05:29;;;;;;;12.60;2.38;;;19.40;49.10;;;;;;4524153;31;20084;-69
2022/04/05 09:08:24;;;;;;;10.57;2.58;;;19.40;49.20;;;;;;4530275;31;20088;-70
2022/04/05 09:11:10;;;;;;;7.20;2.00;;;19.40;49.20;;;;;;4528017;31;20181;-70
2022/04/05 09:13:36;;;;;;;11.70;2.08;;;19.30;49.20;;;;;;4523463;31;20080;-70
2022/04/05 09:16:05;;;;;;;6.95;1.83;;;19.30;49.30;;;;;;4538438;31;20090;-70
2022/04/05 09:18:39;;;;;;;7.82;2.00;;;19.30;49.30;;;;;;4537193;31;20242;-70
2022/04/05 09:21:08;;;;;;;11.10;2.10;;;19.20;49.20;;;;;;4539192;31;21414;-71
2022/04/05 09:23:38;;;;;;;6.72;1.42;;;19.20;49.30;;;;;;4539125;31;20068;-71
2022/04/05 09:26:09;;;;;;;5.88;1.58;;;19.20;49.20;;;;;;4538779;31;20166;-72
2022/04/05 09:28:39;;;;;;;8.02;1.77;;;19.20;49.30;;;;;;4539289;31;20509;-70
2022/04/05 09:31:10;;;;;;;7.13;1.75;;;19.20;49.40;;;;;;4539110;31;20079;-71
2022/04/05 09:33:39;;;;;;;7.88;1.40;;;19.20;49.50;;;;;;4539361;31;20083;-71
2022/04/05 09:36:12;;;;;;;5.85;1.38;;;19.10;49.40;;;;;;4527502;31;20299;-71
2022/04/05 09:38:41;;;;;;;8.88;1.42;;;19.10;49.40;;;;;;4527353;31;20069;-71
2022/04/05 09:41:22;;;;;;;7.68;1.77;;;19.10;49.50;;;;;;4531739;31;20065;-71
2022/04/05 09:43:59;;;;;;;5.15;1.52;;;19.10;49.50;;;;;;4532082;31;20379;-69
2022/04/05 09:46:26;;;;;;;10.63;1.50;;;19.10;49.50;;;;;;4539170;31;20080;-69
2022/04/05 09:49:04;;;;;;;8.00;1.83;;;19.10;49.60;;;;;;4539647;31;20080;-68
2022/04/05 09:51:44;;;;;;;7.07;1.40;;;19.00;49.60;;;;;;4540007;31;20079;-75
2022/04/05 09:54:27;;;;;;;5.93;1.30;;;19.00;49.80;;;;;;4524985;31;20080;-69
2022/04/05 09:56:59;;;;;;;6.68;1.40;;;19.00;49.80;;;;;;4539276;31;20091;-69
2022/04/05 09:59:34;;;;;;;8.38;1.77;;;19.00;49.90;;;;;;4539590;31;20087;-68
2022/04/05 10:02:13;;;;;;;6.30;1.20;;;19.00;50.00;;;;;;4539872;31;20168;-68
2022/04/05 10:05:04;;;;;;;6.50;1.08;;;18.90;49.90;;;;;;4539697;31;20218;-68
2022/04/05 10:07:31;;;;;;;5.47;0.95;;;18.90;49.90;;;;;;4539576;31;20072;-68
2022/04/05 10:10:02;;;;;;;4.53;1.05;;;18.90;50.00;;;;;;4531185;31;20505;-69
2022/04/05 10:12:28;;;;;;;6.35;1.38;;;18.90;50.00;;;;;;4526545;31;20087;-68
2022/04/05 10:14:55;;;;;;;10.45;1.38;;;19.00;50.00;;;;;;4537314;31;20666;-70
2022/04/05 10:17:24;;;;;;;4.68;1.20;;;19.10;50.00;;;;;;4541955;31;20098;-69
2022/04/05 10:19:50;;;;;;;3.42;1.02;;;19.20;49.90;;;;;;4531262;31;20091;-69
2022/04/05 10:22:18;;;;;;;6.43;1.20;;;19.30;49.70;;;;;;4541568;31;20124;-69
2022/04/05 10:24:51;;;;;;;6.15;1.05;;;19.40;49.50;;;;;;4534096;31;20155;-68
2022/04/05 10:27:22;;;;;;;9.40;1.10;;;19.50;49.50;;;;;;4525936;31;20535;-68
2022/04/05 10:30:07;;;;;;;9.52;1.15;;;19.70;49.30;;;;;;4541768;31;20064;-69
2022/04/05 10:32:47;;;;;;;7.30;1.00;;;19.80;49.20;;;;;;4541816;31;20504;-69
2022/04/05 10:35:14;;;;;;;4.13;1.10;;;20.00;48.90;;;;;;4541170;31;20092;-68
2022/04/05 10:37:41;;;;;;;6.13;1.02;;;20.10;48.70;;;;;;4541746;31;20217;-69
2022/04/05 10:40:10;;;;;;;6.53;1.10;;;20.20;48.60;;;;;;4541617;31;20095;-68
2022/04/05 10:42:51;;;;;;;5.13;1.05;;;20.30;48.30;;;;;;4541180;31;20076;-70
2022/04/05 10:45:23;;;;;;;5.00;0.88;;;20.50;48.10;;;;;;4541828;31;20133;-69
2022/04/05 10:48:13;;;;;;;4.03;1.02;;;20.60;48.10;;;;;;4525980;31;20501;-68
2022/04/05 10:50:41;;;;;;;7.47;0.73;;;20.70;47.70;;;;;;4526012;31;20207;-70
2022/04/05 10:53:22;;;;;;;15.95;1.15;;;20.80;47.30;;;;;;4517904;31;20085;-70
2022/04/05 10:56:03;;;;;;;7.90;1.00;;;20.90;47.20;;;;;;4523703;31;20088;-70
2022/04/05 10:58:36;;;;;;;3.83;1.02;;;21.10;47.00;;;;;;4525222;31;20498;-69
2022/04/05 11:01:22;;;;;;;;;;;21.20;46.80;;;;;;4526013;31;20387;-69
2022/04/05 11:04:20;;;;;;;4.78;0.77;;;21.30;46.70;;;;;;4525148;31;20036;-69
2022/04/05 11:07:10;;;;;;;3.55;0.70;;;21.40;46.50;;;;;;4524390;31;20080;-70
2022/04/05 11:09:44;;;;;;;3.10;0.77;;;21.40;46.30;;;;;;4526897;31;20072;-69
2022/04/05 11:12:19;;;;;;;3.20;0.82;;;21.50;46.10;;;;;;4524595;31;20083;-69
2022/04/05 11:14:49;;;;;;;4.53;1.10;;;21.60;46.00;;;;;;4525434;31;20107;-69
2022/04/05 11:17:20;;;;;;;4.05;0.68;;;21.70;45.80;;;;;;4525566;31;20226;-69
2022/04/05 11:19:51;;;;;;;3.22;0.80;;;21.80;45.70;;;;;;4524873;31;20114;-68
2022/04/05 11:22:20;;;;;;;5.53;1.52;;;21.80;45.60;;;;;;4525737;31;20083;-70
2022/04/05 11:24:57;;;;;;;3.75;0.60;;;21.90;45.40;;;;;;4525381;31;20218;-69
2022/04/05 11:27:28;;;;;;;3.58;0.70;;;22.00;45.30;;;;;;4525262;31;20092;-68
2022/04/05 11:30:23;;;;;;;1.85;0.60;;;22.10;45.10;;;;;;4524324;31;20087;-69
2022/04/05 11:33:09;;;;;;;3.08;0.77;;;22.20;45.00;;;;;;4497631;31;20477;-69
2022/04/05 11:35:57;;;;;;;2.53;0.52;;;22.30;44.90;;;;;;4525291;31;20179;-69
2022/04/05 11:38:27;;;;;;;3.33;0.73;;;22.40;44.70;;;;;;4524996;31;20091;-68
2022/04/05 11:41:00;;;;;;;3.90;0.75;;;22.50;44.60;;;;;;4524901;31;20087;-68
2022/04/05 11:43:44;;;;;;;2.03;0.73;;;22.50;44.50;;;;;;4525486;31;20172;-69
2022/04/05 11:46:19;;;;;;;3.28;0.68;;;22.60;44.50;;;;;;4529866;31;20060;-68
2022/04/05 11:49:06;;;;;;;3.83;0.63;;;22.60;44.40;;;;;;4540754;31;20112;-68
2022/04/05 11:51:35;;;;;;;2.85;0.70;;;22.70;44.40;;;;;;4541518;31;20180;-68
2022/04/05 11:54:12;;;;;;;4.68;0.43;;;22.70;44.30;;;;;;4540742;31;20102;-68
2022/04/05 11:56:43;;;;;;;2.22;0.47;;;22.70;44.30;;;;;;4525904;31;20099;-68
2022/04/05 11:59:14;;;;;;;4.95;0.57;;;22.70;44.20;;;;;;4540732;31;20444;-69
2022/04/05 12:01:42;;;;;;;2.08;0.50;;;22.80;44.30;;;;;;4540916;31;20505;-69
2022/04/05 12:04:13;;;;;;;2.83;0.50;;;22.80;44.30;;;;;;4540714;31;20270;-69
2022/04/05 12:06:41;;;;;;;2.15;0.55;;;22.80;44.30;;;;;;4537629;31;20210;-69
2022/04/05 12:09:17;;;;;;;2.33;0.43;;;22.80;44.40;;;;;;4539269;31;20088;-68
2022/04/05 12:11:45;;;;;;;5.75;0.90;;;22.70;44.40;;;;;;4540295;31;20486;-67
2022/04/05 12:14:13;;;;;;;2.42;0.60;;;22.70;44.50;;;;;;4542164;31;20080;-70
2022/04/05 12:16:46;;;;;;;3.78;1.00;;;22.70;44.60;;;;;;4538152;31;20528;-68
2022/04/05 12:19:28;;;;;;;2.10;0.55;;;22.70;44.70;;;;;;4540111;31;20075;-68
2022/04/05 12:21:56;;;;;;;2.90;0.70;;;22.60;44.90;;;;;;4540099;31;20147;-69
2022/04/05 12:24:23;;;;;;;4.07;0.73;;;22.50;45.00;;;;;;4540232;31;20090;-67
2022/04/05 12:26:49;;;;;;;1.75;0.50;;;22.40;45.20;;;;;;4539852;31;20291;-68
2022/04/05 12:29:15;;;;;;;3.55;0.70;;;22.30;45.60;;;;;;4539818;31;20107;-67
2022/04/05 12:31:41;;;;;;;2.05;0.50;;;22.20;46.00;;;;;;4539353;31;20151;-67
2022/04/05 12:34:13;;;;;;;2.83;0.47;;;22.10;46.40;;;;;;4537993;31;20180;-67
2022/04/05 12:36:40;;;;;;;2.85;0.60;;;22.00;46.60;;;;;;4537904;31;20068;-68
2022/04/05 12:39:21;;;;;;;2.45;0.77;;;21.90;46.70;;;;;;4522614;31;20401;-68
2022/04/05 12:41:49;;;;;;;3.50;0.65;;;21.80;46.80;;;;;;4537905;31;20428;-68
2022/04/05 12:44:17;;;;;;;5.13;0.60;;;21.70;47.00;;;;;;4528549;31;20488;-68
2022/04/05 12:46:48;;;;;;;1.67;0.40;;;21.60;47.10;;;;;;4537733;31;20468;-68
2022/04/05 12:49:32;;;;;;;2.60;0.82;;;21.50;47.20;;;;;;4537249;31;20169;-68
2022/04/05 12:52:15;;;;;;;11.18;0.90;;;21.50;47.20;;;;;;4539399;31;20080;-68